sensor_id;sensor_type;location;lat;lon;timestamp;P1;durP1;ratioP1;P2;durP2;ratioP2
35444;SDS011;21562;49.476;6.086;2023-04-03T00:00:09;7.95;;;2.58;;
35444;SDS011;21562;49.476;6.086;2023-04-03T00:02:35;6.13;;;2.25;;
35444;SDS011;21562;49.476;6.086;2023-04-03T00:05:01;5.25;;;2.50;;
35444;SDS011;21562;49.476;6.086;2023-04-03T00:07:26;5.82;;;2.28;;
35444;SDS011;21562;49.476;6.086;2023-04-03T00:09:52;4.40;;;2.10;;
35444;SDS011;21562;49.476;6.086;2023-04-03T00:12:18;6.65;;;2.13;;
35444;SDS011;21562;49.476;6.086;2023-04-03T00:14:43;3.33;;;2.42;;
35444;SDS011;21562;49.476;6.086;2023-04-03T00:17:09;4.65;;;1.98;;
35444;SDS011;21562;49.476;6.086;2023-04-03T00:19:34;4.22;;;1.95;;
35444;SDS011;21562;49.476;6.086;2023-04-03T00:22:00;5.13;;;1.85;;
35444;SDS011;21562;49.476;6.086;2023-04-03T00:24:26;3.45;;;1.88;;
35444;SDS011;21562;49.476;6.086;2023-04-03T00:26:52;4.55;;;1.90;;
35444;SDS011;21562;49.476;6.086;2023-04-03T00:29:17;4.70;;;2.00;;
35444;SDS011;21562;49.476;6.086;2023-04-03T00:31:43;3.83;;;1.70;;
35444;SDS011;21562;49.476;6.086;2023-04-03T00:34:08;5.70;;;2.05;;
35444;SDS011;21562;49.476;6.086;2023-04-03T00:36:34;4.70;;;2.03;;
35444;SDS011;21562;49.476;6.086;2023-04-03T00:39:00;4.93;;;2.00;;
35444;SDS011;21562;49.476;6.086;2023-04-03T00:41:25;5.82;;;2.30;;
35444;SDS011;21562;49.476;6.086;2023-04-03T00:43:51;3.55;;;2.17;;
35444;SDS011;21562;49.476;6.086;2023-04-03T00:46:17;2.85;;;2.00;;
35444;SDS011;21562;49.476;6.086;2023-04-03T00:48:46;3.97;;;1.88;;
35444;SDS011;21562;49.476;6.086;2023-04-03T00:51:13;6.28;;;2.15;;
35444;SDS011;21562;49.476;6.086;2023-04-03T00:56:17;5.50;;;2.20;;
35444;SDS011;21562;49.476;6.086;2023-04-03T00:58:48;5.60;;;1.67;;
35444;SDS011;21562;49.476;6.086;2023-04-03T01:01:35;3.55;;;2.05;;
35444;SDS011;21562;49.476;6.086;2023-04-03T01:04:01;5.05;;;2.40;;
35444;SDS011;21562;49.476;6.086;2023-04-03T01:06:28;3.85;;;2.03;;
35444;SDS011;21562;49.476;6.086;2023-04-03T01:08:57;6.22;;;2.00;;
35444;SDS011;21562;49.476;6.086;2023-04-03T01:11:24;5.32;;;2.20;;
35444;SDS011;21562;49.476;6.086;2023-04-03T01:13:51;8.27;;;2.22;;
35444;SDS011;21562;49.476;6.086;2023-04-03T01:16:16;3.10;;;1.90;;
35444;SDS011;21562;49.476;6.086;2023-04-03T01:18:42;4.97;;;2.35;;
35444;SDS011;21562;49.476;6.086;2023-04-03T01:21:24;5.00;;;2.10;;
35444;SDS011;21562;49.476;6.086;2023-04-03T01:26:21;4.25;;;2.40;;
35444;SDS011;21562;49.476;6.086;2023-04-03T01:28:47;3.33;;;2.10;;
35444;SDS011;21562;49.476;6.086;2023-04-03T01:33:50;4.97;;;1.95;;
35444;SDS011;21562;49.476;6.086;2023-04-03T01:36:17;3.33;;;1.88;;
35444;SDS011;21562;49.476;6.086;2023-04-03T01:38:46;4.95;;;2.70;;
35444;SDS011;21562;49.476;6.086;2023-04-03T01:41:12;4.35;;;2.33;;
35444;SDS011;21562;49.476;6.086;2023-04-03T01:43:37;4.72;;;2.42;;
35444;SDS011;21562;49.476;6.086;2023-04-03T01:46:03;2.63;;;2.20;;
35444;SDS011;21562;49.476;6.086;2023-04-03T01:48:29;3.97;;;2.13;;
35444;SDS011;21562;49.476;6.086;2023-04-03T01:50:54;5.05;;;2.17;;
35444;SDS011;21562;49.476;6.086;2023-04-03T01:53:20;6.43;;;2.50;;
35444;SDS011;21562;49.476;6.086;2023-04-03T01:55:45;5.80;;;2.53;;
35444;SDS011;21562;49.476;6.086;2023-04-03T01:58:11;4.70;;;2.30;;
35444;SDS011;21562;49.476;6.086;2023-04-03T02:00:37;3.50;;;2.10;;
35444;SDS011;21562;49.476;6.086;2023-04-03T02:03:02;4.47;;;2.47;;
35444;SDS011;21562;49.476;6.086;2023-04-03T02:05:28;5.72;;;2.63;;
35444;SDS011;21562;49.476;6.086;2023-04-03T02:07:54;7.47;;;2.45;;
35444;SDS011;21562;49.476;6.086;2023-04-03T02:10:20;6.93;;;2.60;;
35444;SDS011;21562;49.476;6.086;2023-04-03T02:12:46;4.53;;;2.70;;
35444;SDS011;21562;49.476;6.086;2023-04-03T02:15:11;5.25;;;2.88;;
35444;SDS011;21562;49.476;6.086;2023-04-03T02:17:37;7.13;;;2.67;;
35444;SDS011;21562;49.476;6.086;2023-04-03T02:20:03;3.30;;;2.53;;
35444;SDS011;21562;49.476;6.086;2023-04-03T02:22:29;5.30;;;2.17;;
35444;SDS011;21562;49.476;6.086;2023-04-03T02:24:55;7.05;;;2.72;;
35444;SDS011;21562;49.476;6.086;2023-04-03T02:27:21;4.55;;;2.65;;
35444;SDS011;21562;49.476;6.086;2023-04-03T02:29:46;4.60;;;2.70;;
35444;SDS011;21562;49.476;6.086;2023-04-03T02:32:12;5.68;;;2.75;;
35444;SDS011;21562;49.476;6.086;2023-04-03T02:34:37;4.30;;;3.03;;
35444;SDS011;21562;49.476;6.086;2023-04-03T02:37:03;4.88;;;2.50;;
35444;SDS011;21562;49.476;6.086;2023-04-03T02:39:29;7.88;;;2.75;;
35444;SDS011;21562;49.476;6.086;2023-04-03T02:41:54;5.10;;;2.67;;
35444;SDS011;21562;49.476;6.086;2023-04-03T02:44:20;4.68;;;2.60;;
35444;SDS011;21562;49.476;6.086;2023-04-03T02:46:46;3.58;;;2.45;;
35444;SDS011;21562;49.476;6.086;2023-04-03T02:49:11;4.35;;;2.38;;
35444;SDS011;21562;49.476;6.086;2023-04-03T02:51:37;6.15;;;2.70;;
35444;SDS011;21562;49.476;6.086;2023-04-03T02:54:03;5.70;;;2.50;;
35444;SDS011;21562;49.476;6.086;2023-04-03T02:56:28;7.03;;;2.83;;
35444;SDS011;21562;49.476;6.086;2023-04-03T02:58:54;6.93;;;2.80;;
35444;SDS011;21562;49.476;6.086;2023-04-03T03:01:20;5.40;;;2.97;;
35444;SDS011;21562;49.476;6.086;2023-04-03T03:03:46;4.45;;;2.05;;
35444;SDS011;21562;49.476;6.086;2023-04-03T03:06:15;4.50;;;2.88;;
35444;SDS011;21562;49.476;6.086;2023-04-03T03:08:42;3.83;;;2.60;;
35444;SDS011;21562;49.476;6.086;2023-04-03T03:11:08;7.32;;;3.17;;
35444;SDS011;21562;49.476;6.086;2023-04-03T03:13:34;6.13;;;2.47;;
35444;SDS011;21562;49.476;6.086;2023-04-03T03:16:00;8.18;;;2.75;;
35444;SDS011;21562;49.476;6.086;2023-04-03T03:18:27;5.13;;;2.60;;
35444;SDS011;21562;49.476;6.086;2023-04-03T03:20:53;5.28;;;2.72;;
35444;SDS011;21562;49.476;6.086;2023-04-03T03:23:20;7.47;;;2.70;;
35444;SDS011;21562;49.476;6.086;2023-04-03T03:25:47;5.07;;;2.80;;
35444;SDS011;21562;49.476;6.086;2023-04-03T03:28:13;6.65;;;2.33;;
35444;SDS011;21562;49.476;6.086;2023-04-03T03:30:39;3.72;;;2.60;;
35444;SDS011;21562;49.476;6.086;2023-04-03T03:33:05;4.35;;;2.50;;
35444;SDS011;21562;49.476;6.086;2023-04-03T03:35:30;5.10;;;2.58;;
35444;SDS011;21562;49.476;6.086;2023-04-03T03:37:56;13.70;;;3.10;;
35444;SDS011;21562;49.476;6.086;2023-04-03T03:40:22;7.93;;;3.70;;
35444;SDS011;21562;49.476;6.086;2023-04-03T03:42:47;7.05;;;3.90;;
35444;SDS011;21562;49.476;6.086;2023-04-03T03:45:13;7.88;;;3.47;;
35444;SDS011;21562;49.476;6.086;2023-04-03T03:47:38;8.48;;;3.80;;
35444;SDS011;21562;49.476;6.086;2023-04-03T03:50:05;10.85;;;4.20;;
35444;SDS011;21562;49.476;6.086;2023-04-03T03:52:31;10.82;;;4.00;;
35444;SDS011;21562;49.476;6.086;2023-04-03T03:54:56;8.02;;;3.45;;
35444;SDS011;21562;49.476;6.086;2023-04-03T03:57:22;10.88;;;4.07;;
35444;SDS011;21562;49.476;6.086;2023-04-03T03:59:48;6.43;;;3.15;;
35444;SDS011;21562;49.476;6.086;2023-04-03T04:02:14;4.63;;;2.75;;
35444;SDS011;21562;49.476;6.086;2023-04-03T04:04:40;5.32;;;2.75;;
35444;SDS011;21562;49.476;6.086;2023-04-03T04:07:05;4.63;;;2.67;;
35444;SDS011;21562;49.476;6.086;2023-04-03T04:09:31;4.35;;;2.55;;
35444;SDS011;21562;49.476;6.086;2023-04-03T04:11:57;4.22;;;2.45;;
35444;SDS011;21562;49.476;6.086;2023-04-03T04:14:22;4.57;;;2.28;;
35444;SDS011;21562;49.476;6.086;2023-04-03T04:16:48;3.70;;;2.05;;
35444;SDS011;21562;49.476;6.086;2023-04-03T04:19:14;7.82;;;2.35;;
35444;SDS011;21562;49.476;6.086;2023-04-03T04:21:40;5.50;;;2.50;;
35444;SDS011;21562;49.476;6.086;2023-04-03T04:24:06;8.93;;;2.53;;
35444;SDS011;21562;49.476;6.086;2023-04-03T04:26:32;9.27;;;2.60;;
35444;SDS011;21562;49.476;6.086;2023-04-03T04:28:58;3.38;;;2.30;;
35444;SDS011;21562;49.476;6.086;2023-04-03T04:31:24;9.82;;;2.92;;
35444;SDS011;21562;49.476;6.086;2023-04-03T04:33:49;5.47;;;2.70;;
35444;SDS011;21562;49.476;6.086;2023-04-03T04:36:15;5.10;;;2.40;;
35444;SDS011;21562;49.476;6.086;2023-04-03T04:38:41;4.30;;;2.92;;
35444;SDS011;21562;49.476;6.086;2023-04-03T04:41:07;7.25;;;2.70;;
35444;SDS011;21562;49.476;6.086;2023-04-03T04:43:33;3.85;;;2.28;;
35444;SDS011;21562;49.476;6.086;2023-04-03T04:46:06;6.85;;;2.97;;
35444;SDS011;21562;49.476;6.086;2023-04-03T04:50:58;6.20;;;2.30;;
35444;SDS011;21562;49.476;6.086;2023-04-03T04:53:24;5.95;;;2.80;;
35444;SDS011;21562;49.476;6.086;2023-04-03T04:55:50;5.30;;;2.83;;
35444;SDS011;21562;49.476;6.086;2023-04-03T04:58:16;6.57;;;2.63;;
35444;SDS011;21562;49.476;6.086;2023-04-03T05:00:42;6.55;;;2.20;;
35444;SDS011;21562;49.476;6.086;2023-04-03T05:03:08;7.53;;;3.17;;
35444;SDS011;21562;49.476;6.086;2023-04-03T05:05:33;6.35;;;2.58;;
35444;SDS011;21562;49.476;6.086;2023-04-03T05:08:00;5.25;;;2.60;;
35444;SDS011;21562;49.476;6.086;2023-04-03T05:10:27;8.85;;;2.47;;
35444;SDS011;21562;49.476;6.086;2023-04-03T05:12:52;6.85;;;3.20;;
35444;SDS011;21562;49.476;6.086;2023-04-03T05:15:18;10.13;;;2.60;;
35444;SDS011;21562;49.476;6.086;2023-04-03T05:17:44;7.15;;;2.58;;
35444;SDS011;21562;49.476;6.086;2023-04-03T05:20:10;6.88;;;2.50;;
35444;SDS011;21562;49.476;6.086;2023-04-03T05:22:36;10.10;;;2.60;;
35444;SDS011;21562;49.476;6.086;2023-04-03T05:25:01;8.95;;;2.22;;
35444;SDS011;21562;49.476;6.086;2023-04-03T05:27:27;3.60;;;2.22;;
35444;SDS011;21562;49.476;6.086;2023-04-03T05:29:53;5.68;;;2.10;;
35444;SDS011;21562;49.476;6.086;2023-04-03T05:32:20;3.75;;;2.03;;
35444;SDS011;21562;49.476;6.086;2023-04-03T05:34:46;9.05;;;2.33;;
35444;SDS011;21562;49.476;6.086;2023-04-03T05:37:12;6.43;;;2.63;;
35444;SDS011;21562;49.476;6.086;2023-04-03T05:39:37;10.52;;;2.42;;
35444;SDS011;21562;49.476;6.086;2023-04-03T05:42:05;7.95;;;2.20;;
35444;SDS011;21562;49.476;6.086;2023-04-03T05:44:31;3.63;;;2.00;;
35444;SDS011;21562;49.476;6.086;2023-04-03T05:46:56;3.35;;;2.00;;
35444;SDS011;21562;49.476;6.086;2023-04-03T05:49:22;6.13;;;2.85;;
35444;SDS011;21562;49.476;6.086;2023-04-03T05:51:48;7.07;;;2.55;;
35444;SDS011;21562;49.476;6.086;2023-04-03T05:54:18;8.73;;;2.58;;
35444;SDS011;21562;49.476;6.086;2023-04-03T05:56:48;7.07;;;2.22;;
35444;SDS011;21562;49.476;6.086;2023-04-03T05:59:14;8.05;;;2.15;;
35444;SDS011;21562;49.476;6.086;2023-04-03T06:01:40;6.35;;;2.08;;
35444;SDS011;21562;49.476;6.086;2023-04-03T06:04:06;6.07;;;2.00;;
35444;SDS011;21562;49.476;6.086;2023-04-03T06:09:28;4.88;;;2.08;;
35444;SDS011;21562;49.476;6.086;2023-04-03T06:11:54;7.28;;;2.50;;
35444;SDS011;21562;49.476;6.086;2023-04-03T06:14:21;5.47;;;2.47;;
35444;SDS011;21562;49.476;6.086;2023-04-03T06:16:46;4.90;;;2.15;;
35444;SDS011;21562;49.476;6.086;2023-04-03T06:19:12;4.95;;;1.90;;
35444;SDS011;21562;49.476;6.086;2023-04-03T06:21:38;6.47;;;1.83;;
35444;SDS011;21562;49.476;6.086;2023-04-03T06:24:04;10.10;;;2.63;;
35444;SDS011;21562;49.476;6.086;2023-04-03T06:26:30;9.50;;;2.47;;
35444;SDS011;21562;49.476;6.086;2023-04-03T06:28:57;10.13;;;2.50;;
35444;SDS011;21562;49.476;6.086;2023-04-03T06:31:22;7.20;;;2.03;;
35444;SDS011;21562;49.476;6.086;2023-04-03T06:33:48;8.75;;;1.95;;
35444;SDS011;21562;49.476;6.086;2023-04-03T06:36:14;5.68;;;2.00;;
35444;SDS011;21562;49.476;6.086;2023-04-03T06:38:44;5.32;;;1.73;;
35444;SDS011;21562;49.476;6.086;2023-04-03T06:41:10;3.17;;;1.48;;
35444;SDS011;21562;49.476;6.086;2023-04-03T06:43:36;9.30;;;2.17;;
35444;SDS011;21562;49.476;6.086;2023-04-03T06:46:02;5.03;;;1.60;;
35444;SDS011;21562;49.476;6.086;2023-04-03T06:48:27;7.38;;;2.13;;
35444;SDS011;21562;49.476;6.086;2023-04-03T06:50:54;7.20;;;1.65;;
35444;SDS011;21562;49.476;6.086;2023-04-03T06:53:20;5.03;;;1.88;;
35444;SDS011;21562;49.476;6.086;2023-04-03T06:55:45;5.38;;;1.80;;
35444;SDS011;21562;49.476;6.086;2023-04-03T06:58:12;4.63;;;1.58;;
35444;SDS011;21562;49.476;6.086;2023-04-03T07:00:38;4.95;;;1.83;;
35444;SDS011;21562;49.476;6.086;2023-04-03T07:03:04;6.55;;;1.98;;
35444;SDS011;21562;49.476;6.086;2023-04-03T07:05:30;6.43;;;2.05;;
35444;SDS011;21562;49.476;6.086;2023-04-03T07:07:56;5.95;;;1.63;;
35444;SDS011;21562;49.476;6.086;2023-04-03T07:10:21;5.13;;;1.80;;
35444;SDS011;21562;49.476;6.086;2023-04-03T07:12:47;4.28;;;1.83;;
35444;SDS011;21562;49.476;6.086;2023-04-03T07:15:13;3.90;;;1.52;;
35444;SDS011;21562;49.476;6.086;2023-04-03T07:17:39;5.10;;;1.65;;
35444;SDS011;21562;49.476;6.086;2023-04-03T07:20:05;3.65;;;1.63;;
35444;SDS011;21562;49.476;6.086;2023-04-03T07:22:32;5.35;;;1.70;;
35444;SDS011;21562;49.476;6.086;2023-04-03T07:24:57;6.28;;;1.83;;
35444;SDS011;21562;49.476;6.086;2023-04-03T07:27:24;4.72;;;1.88;;
35444;SDS011;21562;49.476;6.086;2023-04-03T07:29:50;5.10;;;1.70;;
35444;SDS011;21562;49.476;6.086;2023-04-03T07:32:16;5.03;;;1.67;;
35444;SDS011;21562;49.476;6.086;2023-04-03T07:34:42;4.50;;;1.90;;
35444;SDS011;21562;49.476;6.086;2023-04-03T07:37:08;5.85;;;2.13;;
35444;SDS011;21562;49.476;6.086;2023-04-03T07:39:34;4.60;;;1.65;;
35444;SDS011;21562;49.476;6.086;2023-04-03T07:42:00;5.38;;;2.25;;
35444;SDS011;21562;49.476;6.086;2023-04-03T07:44:26;5.85;;;2.25;;
35444;SDS011;21562;49.476;6.086;2023-04-03T07:46:52;6.85;;;1.73;;
35444;SDS011;21562;49.476;6.086;2023-04-03T07:49:20;7.15;;;1.50;;
35444;SDS011;21562;49.476;6.086;2023-04-03T07:51:48;5.68;;;1.40;;
35444;SDS011;21562;49.476;6.086;2023-04-03T07:54:14;6.72;;;1.67;;
35444;SDS011;21562;49.476;6.086;2023-04-03T07:56:40;3.65;;;1.80;;
35444;SDS011;21562;49.476;6.086;2023-04-03T07:59:07;5.13;;;1.67;;
35444;SDS011;21562;49.476;6.086;2023-04-03T08:01:33;5.78;;;1.92;;
35444;SDS011;21562;49.476;6.086;2023-04-03T08:03:59;5.78;;;1.90;;
35444;SDS011;21562;49.476;6.086;2023-04-03T08:06:25;9.05;;;1.88;;
35444;SDS011;21562;49.476;6.086;2023-04-03T08:08:51;6.68;;;2.08;;
35444;SDS011;21562;49.476;6.086;2023-04-03T08:11:17;5.22;;;2.05;;
35444;SDS011;21562;49.476;6.086;2023-04-03T08:13:43;8.43;;;1.98;;
35444;SDS011;21562;49.476;6.086;2023-04-03T08:16:13;4.75;;;1.83;;
35444;SDS011;21562;49.476;6.086;2023-04-03T08:18:42;8.57;;;1.60;;
35444;SDS011;21562;49.476;6.086;2023-04-03T08:21:08;7.53;;;1.98;;
35444;SDS011;21562;49.476;6.086;2023-04-03T08:23:35;4.97;;;1.45;;
35444;SDS011;21562;49.476;6.086;2023-04-03T08:26:12;4.10;;;1.40;;
35444;SDS011;21562;49.476;6.086;2023-04-03T08:28:40;5.03;;;1.90;;
35444;SDS011;21562;49.476;6.086;2023-04-03T08:31:07;4.10;;;1.70;;
35444;SDS011;21562;49.476;6.086;2023-04-03T08:33:36;9.77;;;1.98;;
35444;SDS011;21562;49.476;6.086;2023-04-03T08:36:05;4.65;;;1.73;;
35444;SDS011;21562;49.476;6.086;2023-04-03T08:38:33;5.55;;;1.80;;
35444;SDS011;21562;49.476;6.086;2023-04-03T08:41:15;4.82;;;1.67;;
35444;SDS011;21562;49.476;6.086;2023-04-03T08:47:25;5.18;;;1.88;;
35444;SDS011;21562;49.476;6.086;2023-04-03T08:50:15;4.18;;;1.52;;
35444;SDS011;21562;49.476;6.086;2023-04-03T08:52:52;6.63;;;1.48;;
35444;SDS011;21562;49.476;6.086;2023-04-03T08:58:06;7.53;;;1.60;;
35444;SDS011;21562;49.476;6.086;2023-04-03T09:00:43;5.38;;;1.58;;
35444;SDS011;21562;49.476;6.086;2023-04-03T09:03:21;4.63;;;1.40;;
35444;SDS011;21562;49.476;6.086;2023-04-03T09:05:49;2.33;;;1.25;;
35444;SDS011;21562;49.476;6.086;2023-04-03T09:08:29;4.63;;;1.45;;
35444;SDS011;21562;49.476;6.086;2023-04-03T09:14:02;9.68;;;2.25;;
35444;SDS011;21562;49.476;6.086;2023-04-03T09:19:36;8.82;;;2.38;;
35444;SDS011;21562;49.476;6.086;2023-04-03T09:27:26;4.85;;;1.52;;
35444;SDS011;21562;49.476;6.086;2023-04-03T09:29:52;5.57;;;1.60;;
35444;SDS011;21562;49.476;6.086;2023-04-03T09:34:57;3.55;;;1.55;;
35444;SDS011;21562;49.476;6.086;2023-04-03T09:40:02;9.38;;;2.20;;
35444;SDS011;21562;49.476;6.086;2023-04-03T09:42:29;4.93;;;1.77;;
35444;SDS011;21562;49.476;6.086;2023-04-03T09:45:04;4.30;;;1.50;;
35444;SDS011;21562;49.476;6.086;2023-04-03T09:47:45;3.80;;;1.30;;
35444;SDS011;21562;49.476;6.086;2023-04-03T09:52:42;5.88;;;1.30;;
35444;SDS011;21562;49.476;6.086;2023-04-03T09:55:16;6.45;;;2.42;;
35444;SDS011;21562;49.476;6.086;2023-04-03T09:57:44;4.63;;;1.70;;
35444;SDS011;21562;49.476;6.086;2023-04-03T10:02:56;6.25;;;1.65;;
35444;SDS011;21562;49.476;6.086;2023-04-03T10:10:45;4.53;;;2.00;;
35444;SDS011;21562;49.476;6.086;2023-04-03T10:13:17;8.88;;;1.75;;
35444;SDS011;21562;49.476;6.086;2023-04-03T10:15:46;3.75;;;1.25;;
35444;SDS011;21562;49.476;6.086;2023-04-03T10:20:57;4.47;;;1.50;;
35444;SDS011;21562;49.476;6.086;2023-04-03T10:23:37;4.32;;;1.33;;
35444;SDS011;21562;49.476;6.086;2023-04-03T10:34:40;6.53;;;1.83;;
35444;SDS011;21562;49.476;6.086;2023-04-03T10:37:14;4.13;;;2.00;;
35444;SDS011;21562;49.476;6.086;2023-04-03T10:48:16;6.80;;;1.60;;
35444;SDS011;21562;49.476;6.086;2023-04-03T10:58:41;3.35;;;1.20;;
35444;SDS011;21562;49.476;6.086;2023-04-03T11:01:11;6.55;;;2.30;;
35444;SDS011;21562;49.476;6.086;2023-04-03T11:03:58;3.60;;;1.33;;
35444;SDS011;21562;49.476;6.086;2023-04-03T11:06:26;4.28;;;1.52;;
35444;SDS011;21562;49.476;6.086;2023-04-03T11:11:33;3.10;;;1.40;;
35444;SDS011;21562;49.476;6.086;2023-04-03T11:14:09;10.88;;;1.50;;
35444;SDS011;21562;49.476;6.086;2023-04-03T11:16:46;4.20;;;1.33;;
35444;SDS011;21562;49.476;6.086;2023-04-03T11:19:20;2.08;;;0.95;;
35444;SDS011;21562;49.476;6.086;2023-04-03T11:22:00;3.92;;;1.52;;
35444;SDS011;21562;49.476;6.086;2023-04-03T11:24:33;5.60;;;1.50;;
35444;SDS011;21562;49.476;6.086;2023-04-03T11:27:03;6.60;;;1.83;;
35444;SDS011;21562;49.476;6.086;2023-04-03T11:29:34;6.38;;;1.42;;
35444;SDS011;21562;49.476;6.086;2023-04-03T11:34:45;5.13;;;1.60;;
35444;SDS011;21562;49.476;6.086;2023-04-03T11:39:57;5.18;;;2.00;;
35444;SDS011;21562;49.476;6.086;2023-04-03T11:45:16;1.98;;;1.00;;
35444;SDS011;21562;49.476;6.086;2023-04-03T11:47:58;3.88;;;1.27;;
35444;SDS011;21562;49.476;6.086;2023-04-03T11:50:39;4.50;;;1.33;;
35444;SDS011;21562;49.476;6.086;2023-04-03T12:26:46;3.90;;;1.38;;
35444;SDS011;21562;49.476;6.086;2023-04-03T12:34:42;4.10;;;1.88;;
35444;SDS011;21562;49.476;6.086;2023-04-03T12:40:27;4.22;;;1.10;;
35444;SDS011;21562;49.476;6.086;2023-04-03T12:48:47;3.70;;;1.02;;
35444;SDS011;21562;49.476;6.086;2023-04-03T12:51:19;3.88;;;1.27;;
35444;SDS011;21562;49.476;6.086;2023-04-03T12:53:51;4.82;;;1.50;;
35444;SDS011;21562;49.476;6.086;2023-04-03T12:56:29;3.20;;;1.20;;
35444;SDS011;21562;49.476;6.086;2023-04-03T12:59:13;7.32;;;1.27;;
35444;SDS011;21562;49.476;6.086;2023-04-03T13:01:53;2.95;;;1.10;;
35444;SDS011;21562;49.476;6.086;2023-04-03T13:04:20;5.93;;;1.10;;
35444;SDS011;21562;49.476;6.086;2023-04-03T13:06:46;5.00;;;1.13;;
35444;SDS011;21562;49.476;6.086;2023-04-03T13:09:22;2.78;;;1.38;;
35444;SDS011;21562;49.476;6.086;2023-04-03T13:12:15;5.40;;;1.27;;
35444;SDS011;21562;49.476;6.086;2023-04-03T13:14:40;5.22;;;1.20;;
35444;SDS011;21562;49.476;6.086;2023-04-03T13:17:16;5.97;;;1.60;;
35444;SDS011;21562;49.476;6.086;2023-04-03T13:19:43;4.78;;;1.27;;
35444;SDS011;21562;49.476;6.086;2023-04-03T13:22:30;8.40;;;1.75;;
35444;SDS011;21562;49.476;6.086;2023-04-03T13:25:05;4.35;;;1.20;;
35444;SDS011;21562;49.476;6.086;2023-04-03T13:27:34;6.47;;;1.20;;
35444;SDS011;21562;49.476;6.086;2023-04-03T13:30:00;5.95;;;1.40;;
35444;SDS011;21562;49.476;6.086;2023-04-03T13:32:29;3.45;;;1.30;;
35444;SDS011;21562;49.476;6.086;2023-04-03T13:34:56;7.65;;;1.80;;
35444;SDS011;21562;49.476;6.086;2023-04-03T13:37:24;6.47;;;1.45;;
35444;SDS011;21562;49.476;6.086;2023-04-03T13:39:58;4.82;;;1.13;;
35444;SDS011;21562;49.476;6.086;2023-04-03T13:42:36;3.40;;;1.17;;
35444;SDS011;21562;49.476;6.086;2023-04-03T13:47:49;3.33;;;1.33;;
35444;SDS011;21562;49.476;6.086;2023-04-03T14:00:21;5.78;;;1.35;;
35444;SDS011;21562;49.476;6.086;2023-04-03T14:02:54;1.98;;;1.15;;
35444;SDS011;21562;49.476;6.086;2023-04-03T14:05:21;8.77;;;1.83;;
35444;SDS011;21562;49.476;6.086;2023-04-03T14:07:49;6.40;;;1.63;;
35444;SDS011;21562;49.476;6.086;2023-04-03T14:10:15;6.43;;;1.35;;
35444;SDS011;21562;49.476;6.086;2023-04-03T14:12:41;7.13;;;1.75;;
35444;SDS011;21562;49.476;6.086;2023-04-03T14:15:14;6.18;;;1.27;;
35444;SDS011;21562;49.476;6.086;2023-04-03T14:17:49;3.47;;;1.40;;
35444;SDS011;21562;49.476;6.086;2023-04-03T14:20:17;6.00;;;1.40;;
35444;SDS011;21562;49.476;6.086;2023-04-03T14:22:45;3.03;;;0.90;;
35444;SDS011;21562;49.476;6.086;2023-04-03T14:25:12;6.25;;;1.20;;
35444;SDS011;21562;49.476;6.086;2023-04-03T14:27:42;3.50;;;1.25;;
35444;SDS011;21562;49.476;6.086;2023-04-03T14:30:12;4.75;;;1.17;;
35444;SDS011;21562;49.476;6.086;2023-04-03T14:32:44;5.15;;;1.42;;
35444;SDS011;21562;49.476;6.086;2023-04-03T14:35:11;4.25;;;1.25;;
35444;SDS011;21562;49.476;6.086;2023-04-03T14:37:37;4.80;;;1.20;;
35444;SDS011;21562;49.476;6.086;2023-04-03T14:40:04;6.80;;;1.08;;
35444;SDS011;21562;49.476;6.086;2023-04-03T14:42:32;3.70;;;1.23;;
35444;SDS011;21562;49.476;6.086;2023-04-03T14:45:00;6.57;;;1.35;;
35444;SDS011;21562;49.476;6.086;2023-04-03T14:47:28;3.58;;;1.50;;
35444;SDS011;21562;49.476;6.086;2023-04-03T14:49:54;4.13;;;1.50;;
35444;SDS011;21562;49.476;6.086;2023-04-03T14:52:28;4.88;;;1.00;;
35444;SDS011;21562;49.476;6.086;2023-04-03T14:54:56;5.28;;;1.10;;
35444;SDS011;21562;49.476;6.086;2023-04-03T14:57:25;8.70;;;1.15;;
35444;SDS011;21562;49.476;6.086;2023-04-03T14:59:52;4.82;;;1.30;;
35444;SDS011;21562;49.476;6.086;2023-04-03T15:07:19;3.00;;;0.95;;
35444;SDS011;21562;49.476;6.086;2023-04-03T15:09:45;6.57;;;1.30;;
35444;SDS011;21562;49.476;6.086;2023-04-03T15:12:10;7.80;;;1.35;;
35444;SDS011;21562;49.476;6.086;2023-04-03T15:14:37;3.00;;;1.13;;
35444;SDS011;21562;49.476;6.086;2023-04-03T15:17:06;5.47;;;1.25;;
35444;SDS011;21562;49.476;6.086;2023-04-03T15:19:36;5.47;;;1.38;;
35444;SDS011;21562;49.476;6.086;2023-04-03T15:22:03;2.35;;;1.02;;
35444;SDS011;21562;49.476;6.086;2023-04-03T15:24:29;3.97;;;1.25;;
35444;SDS011;21562;49.476;6.086;2023-04-03T15:26:55;7.10;;;1.33;;
35444;SDS011;21562;49.476;6.086;2023-04-03T15:29:20;3.13;;;1.20;;
35444;SDS011;21562;49.476;6.086;2023-04-03T15:31:46;4.68;;;1.13;;
35444;SDS011;21562;49.476;6.086;2023-04-03T15:34:12;4.03;;;0.90;;
35444;SDS011;21562;49.476;6.086;2023-04-03T15:36:37;5.15;;;1.30;;
35444;SDS011;21562;49.476;6.086;2023-04-03T15:39:03;3.28;;;1.15;;
35444;SDS011;21562;49.476;6.086;2023-04-03T15:41:29;3.17;;;1.38;;
35444;SDS011;21562;49.476;6.086;2023-04-03T15:43:54;6.80;;;1.20;;
35444;SDS011;21562;49.476;6.086;2023-04-03T15:46:20;4.10;;;1.35;;
35444;SDS011;21562;49.476;6.086;2023-04-03T15:48:46;2.80;;;1.05;;
35444;SDS011;21562;49.476;6.086;2023-04-03T15:51:11;6.93;;;1.30;;
35444;SDS011;21562;49.476;6.086;2023-04-03T15:53:37;2.25;;;1.00;;
35444;SDS011;21562;49.476;6.086;2023-04-03T15:56:03;2.90;;;0.80;;
35444;SDS011;21562;49.476;6.086;2023-04-03T15:58:29;5.03;;;1.25;;
35444;SDS011;21562;49.476;6.086;2023-04-03T16:00:56;3.90;;;1.10;;
35444;SDS011;21562;49.476;6.086;2023-04-03T16:03:21;5.50;;;1.13;;
35444;SDS011;21562;49.476;6.086;2023-04-03T16:05:49;2.53;;;1.00;;
35444;SDS011;21562;49.476;6.086;2023-04-03T16:08:15;5.00;;;1.30;;
35444;SDS011;21562;49.476;6.086;2023-04-03T16:10:42;3.58;;;1.00;;
35444;SDS011;21562;49.476;6.086;2023-04-03T16:13:10;8.48;;;2.05;;
35444;SDS011;21562;49.476;6.086;2023-04-03T16:15:35;3.40;;;1.02;;
35444;SDS011;21562;49.476;6.086;2023-04-03T16:18:02;5.72;;;1.17;;
35444;SDS011;21562;49.476;6.086;2023-04-03T16:20:28;3.50;;;0.93;;
35444;SDS011;21562;49.476;6.086;2023-04-03T16:22:53;5.38;;;1.13;;
35444;SDS011;21562;49.476;6.086;2023-04-03T16:25:22;3.45;;;1.38;;
35444;SDS011;21562;49.476;6.086;2023-04-03T16:27:47;4.93;;;1.60;;
35444;SDS011;21562;49.476;6.086;2023-04-03T16:30:13;7.50;;;1.65;;
35444;SDS011;21562;49.476;6.086;2023-04-03T16:32:39;4.50;;;1.17;;
35444;SDS011;21562;49.476;6.086;2023-04-03T16:35:05;3.53;;;0.93;;
35444;SDS011;21562;49.476;6.086;2023-04-03T16:37:31;2.00;;;1.10;;
35444;SDS011;21562;49.476;6.086;2023-04-03T16:39:57;3.03;;;1.20;;
35444;SDS011;21562;49.476;6.086;2023-04-03T16:42:23;3.50;;;1.17;;
35444;SDS011;21562;49.476;6.086;2023-04-03T16:44:49;2.92;;;1.20;;
35444;SDS011;21562;49.476;6.086;2023-04-03T16:47:15;2.90;;;1.20;;
35444;SDS011;21562;49.476;6.086;2023-04-03T16:49:44;3.63;;;1.30;;
35444;SDS011;21562;49.476;6.086;2023-04-03T16:52:10;3.92;;;1.20;;
35444;SDS011;21562;49.476;6.086;2023-04-03T16:54:36;5.35;;;1.27;;
35444;SDS011;21562;49.476;6.086;2023-04-03T16:57:01;5.20;;;1.50;;
35444;SDS011;21562;49.476;6.086;2023-04-03T16:59:27;3.13;;;1.65;;
35444;SDS011;21562;49.476;6.086;2023-04-03T17:01:53;5.50;;;1.48;;
35444;SDS011;21562;49.476;6.086;2023-04-03T17:04:19;4.00;;;1.50;;
35444;SDS011;21562;49.476;6.086;2023-04-03T17:06:44;3.28;;;1.50;;
35444;SDS011;21562;49.476;6.086;2023-04-03T17:09:10;3.65;;;1.33;;
35444;SDS011;21562;49.476;6.086;2023-04-03T17:11:37;2.95;;;1.55;;
35444;SDS011;21562;49.476;6.086;2023-04-03T17:14:03;4.28;;;1.50;;
35444;SDS011;21562;49.476;6.086;2023-04-03T17:16:29;3.88;;;1.70;;
35444;SDS011;21562;49.476;6.086;2023-04-03T17:18:57;8.98;;;1.80;;
35444;SDS011;21562;49.476;6.086;2023-04-03T17:21:23;6.15;;;1.50;;